Time;durP1;ratioP1;P1;durP2;ratioP2;P2;SDS_P1;SDS_P2;PMS_P1;PMS_P2;Temp;Humidity;BMP_temperature;BMP_pressure;BME280_temperature;BME280_humidity;BME280_pressure;Samples;Min_cycle;Max_cycle;Signal;HPM_P1;HPM_P2
2022/08/15 00:01:30;;;;;;;;;;;;;;;24.42;41.2207;100445.8;;;;-75
2022/08/15 00:06:29;;;;;;;;;;;;;;;24.38;41.26367;100439.7;;;;-77
2022/08/15 00:11:31;;;;;;;;;;;;;;;24.31;41.4873;100431.8;;;;-75
2022/08/15 00:14:56;;;;;;;7;5.7;;;;;;;;;;;;;-74
2022/08/15 00:16:32;;;;;;;;;;;;;;;24.22;41.68652;100430.5;;;;-74
2022/08/15 00:21:28;;;;;;;;;;;;;;;24.12;41.71191;100423.2;;;;-75
2022/08/15 00:26:27;;;;;;;;;;;;;;;24.05;41.91504;100417.9;;;;-75
2022/08/15 00:31:31;;;;;;;;;;;;;;;23.99;42.00098;100413.8;;;;-75
2022/08/15 00:36:30;;;;;;;;;;;;;;;23.93;42.08691;100409.1;;;;-75
2022/08/15 00:41:43;;;;;;;;;;;;;;;23.87;42.49609;100412.2;;;;-74
2022/08/15 00:44:59;;;;;;;7.8;5.8;;;;;;;;;;;;;-74
2022/08/15 00:46:32;;;;;;;;;;;;;;;23.78;42.53418;100411.3;;;;-75
2022/08/15 00:51:30;;;;;;;;;;;;;;;23.72;42.89746;100402;;;;-75
2022/08/15 00:56:30;;;;;;;;;;;;;;;23.63;43.05078;100394.1;;;;-74
2022/08/15 01:01:28;;;;;;;;;;;;;;;23.6;43.01367;100394.7;;;;-76
2022/08/15 01:06:29;;;;;;;;;;;;;;;23.55;43.16992;100393.3;;;;-76
2022/08/15 01:11:30;;;;;;;;;;;;;;;23.48;43.27734;100392.1;;;;-74
2022/08/15 01:15:05;;;;;;;8.1;5.6;;;;;;;;;;;;;-75
2022/08/15 01:16:29;;;;;;;;;;;;;;;23.41;43.22559;100384.7;;;;-76
2022/08/15 01:21:34;;;;;;;;;;;;;;;23.33;43.3916;100379.4;;;;-75
2022/08/15 01:26:29;;;;;;;;;;;;;;;23.29;43.43164;100369;;;;-74
2022/08/15 01:31:29;;;;;;;;;;;;;;;23.22;43.56348;100369.6;;;;-75
2022/08/15 01:36:28;;;;;;;;;;;;;;;23.16;43.75391;100371.6;;;;-75
2022/08/15 01:41:36;;;;;;;;;;;;;;;23.09;43.86133;100371.4;;;;-75
2022/08/15 01:45:14;;;;;;;7.9;5.8;;;;;;;;;;;;;-71
2022/08/15 01:46:30;;;;;;;;;;;;;;;23.03;44.18945;100365.9;;;;-71
2022/08/15 01:51:27;;;;;;;;;;;;;;;23;44.35938;100358.7;;;;-70
2022/08/15 01:56:31;;;;;;;;;;;;;;;22.92;44.61523;100356.1;;;;-74
2022/08/15 02:01:37;;;;;;;;;;;;;;;22.87;45.04785;100349.2;;;;-75
2022/08/15 02:06:30;;;;;;;;;;;;;;;22.8;45.14355;100347.7;;;;-74
2022/08/15 02:11:31;;;;;;;;;;;;;;;22.76;45.14063;100346.7;;;;-74
2022/08/15 02:15:12;;;;;;;6.5;5;;;;;;;;;;;;;-75
2022/08/15 02:16:30;;;;;;;;;;;;;;;22.72;45.44629;100339.7;;;;-75
2022/08/15 02:21:27;;;;;;;;;;;;;;;22.71;45.61816;100342.9;;;;-75
2022/08/15 02:26:28;;;;;;;;;;;;;;;22.67;45.68262;100337.3;;;;-74
2022/08/15 02:31:29;;;;;;;;;;;;;;;22.66;45.85449;100330.9;;;;-74
2022/08/15 02:36:28;;;;;;;;;;;;;;;22.68;45.99414;100327.1;;;;-75
2022/08/15 02:41:30;;;;;;;;;;;;;;;22.66;45.88965;100327.4;;;;-74
2022/08/15 02:45:17;;;;;;;7.6;5.3;;;;;;;;;;;;;-74
2022/08/15 02:46:29;;;;;;;;;;;;;;;22.66;45.91211;100331;;;;-75
2022/08/15 02:51:28;;;;;;;;;;;;;;;22.64;45.9209;100335.7;;;;-74
2022/08/15 02:56:29;;;;;;;;;;;;;;;22.66;45.91113;100337.5;;;;-75
2022/08/15 03:01:28;;;;;;;;;;;;;;;22.67;45.86621;100341.8;;;;-75
2022/08/15 03:06:30;;;;;;;;;;;;;;;22.65;48.73633;100361.1;;;;-74
2022/08/15 03:11:28;;;;;;;;;;;;;;;22.66;48.60059;100344.9;;;;-74
2022/08/15 03:15:17;;;;;;;8.4;5.6;;;;;;;;;;;;;-75
2022/08/15 03:16:28;;;;;;;;;;;;;;;22.68;47.79785;100347.9;;;;-74
2022/08/15 03:21:28;;;;;;;;;;;;;;;22.69;47.51074;100355;;;;-75
2022/08/15 03:26:28;;;;;;;;;;;;;;;22.68;47.47656;100343.4;;;;-76
2022/08/15 03:31:27;;;;;;;;;;;;;;;22.69;47.21289;100340.4;;;;-75
2022/08/15 03:36:28;;;;;;;;;;;;;;;22.68;47.08496;100343;;;;-75
2022/08/15 03:41:28;;;;;;;;;;;;;;;22.67;47.25684;100332.7;;;;-74
2022/08/15 03:45:20;;;;;;;7.3;5.4;;;;;;;;;;;;;-75
2022/08/15 03:46:28;;;;;;;;;;;;;;;22.68;47.17773;100335;;;;-74
2022/08/15 03:51:30;;;;;;;;;;;;;;;22.67;47.19922;100327.7;;;;-75
2022/08/15 03:56:28;;;;;;;;;;;;;;;22.67;46.94629;100329.5;;;;-74
2022/08/15 04:01:29;;;;;;;;;;;;;;;22.67;46.94629;100327.4;;;;-75
2022/08/15 04:06:29;;;;;;;;;;;;;;;22.67;46.93457;100315;;;;-75
2022/08/15 04:11:30;;;;;;;;;;;;;;;22.65;46.87598;100313.6;;;;-74
2022/08/15 04:15:24;;;;;;;7.3;5.4;;;;;;;;;;;;;-74
2022/08/15 04:16:28;;;;;;;;;;;;;;;22.66;46.79688;100312.1;;;;-75
2022/08/15 04:21:28;;;;;;;;;;;;;;;22.65;46.74902;100310;;;;-75
2022/08/15 04:26:27;;;;;;;;;;;;;;;22.64;46.62207;100311.1;;;;-75
2022/08/15 04:31:27;;;;;;;;;;;;;;;22.61;46.75684;100302.1;;;;-74
2022/08/15 04:36:28;;;;;;;;;;;;;;;22.57;46.66016;100302.3;;;;-74
2022/08/15 04:41:30;;;;;;;;;;;;;;;22.56;46.74023;100309.2;;;;-75
2022/08/15 04:45:27;;;;;;;8.3;6.2;;;;;;;;;;;;;-75
2022/08/15 04:46:27;;;;;;;;;;;;;;;22.55;46.71582;100312.5;;;;-75
2022/08/15 04:51:28;;;;;;;;;;;;;;;22.55;48.02441;100331.2;;;;-75
2022/08/15 04:56:27;;;;;;;;;;;;;;;22.56;49.23145;100321.2;;;;-75
2022/08/15 05:01:28;;;;;;;;;;;;;;;22.57;51.72168;100336.2;;;;-74
2022/08/15 05:06:27;;;;;;;;;;;;;;;22.57;50.10449;100311.6;;;;-75
2022/08/15 05:11:27;;;;;;;;;;;;;;;22.58;49.71484;100323.2;;;;-76
2022/08/15 05:15:31;;;;;;;10.4;7.4;;;;;;;;;;;;;-74
2022/08/15 05:16:27;;;;;;;;;;;;;;;22.57;49.50781;100339.6;;;;-74
2022/08/15 05:21:28;;;;;;;;;;;;;;;22.58;49.39453;100343.2;;;;-75
2022/08/15 05:26:28;;;;;;;;;;;;;;;22.57;49.1748;100347.3;;;;-75
2022/08/15 05:31:28;;;;;;;;;;;;;;;22.58;49.49707;100355;;;;-76
2022/08/15 05:36:28;;;;;;;;;;;;;;;22.6;50.32617;100353.9;;;;-75
2022/08/15 05:41:33;;;;;;;;;;;;;;;22.62;50.38574;100330.7;;;;-73
2022/08/15 05:45:37;;;;;;;10.6;7.6;;;;;;;;;;;;;-75
2022/08/15 05:46:31;;;;;;;;;;;;;;;22.67;50.43652;100344.6;;;;-74
2022/08/15 05:51:33;;;;;;;;;;;;;;;22.68;50.73633;100349;;;;-75
2022/08/15 05:56:34;;;;;;;;;;;;;;;22.7;51.23145;100361.2;;;;-75
2022/08/15 06:01:30;;;;;;;;;;;;;;;22.71;51.17676;100370.8;;;;-75
2022/08/15 06:06:30;;;;;;;;;;;;;;;22.68;51.35547;100380.1;;;;-75
2022/08/15 06:11:31;;;;;;;;;;;;;;;22.65;51.37695;100403.2;;;;-73
2022/08/15 06:15:48;;;;;;;10.8;7.5;;;;;;;;;;;;;-75
2022/08/15 06:16:29;;;;;;;;;;;;;;;22.64;51.05371;100397.1;;;;-75
2022/08/15 06:21:31;;;;;;;;;;;;;;;22.63;50.44434;100394.5;;;;-74
2022/08/15 06:26:36;;;;;;;;;;;;;;;22.63;50.31836;100404;;;;-74
2022/08/15 06:31:31;;;;;;;;;;;;;;;22.62;49.91504;100393.1;;;;-75
2022/08/15 06:36:31;;;;;;;;;;;;;;;22.65;49.62012;100392.7;;;;-80
2022/08/15 06:41:31;;;;;;;;;;;;;;;22.67;49.63379;100387.3;;;;-76
2022/08/15 06:45:42;;;;;;;9.7;6.9;;;;;;;;;;;;;-76
2022/08/15 06:46:30;;;;;;;;;;;;;;;22.69;49.68164;100384.8;;;;-76
2022/08/15 06:51:28;;;;;;;;;;;;;;;22.73;49.75586;100387.9;;;;-77
2022/08/15 06:56:32;;;;;;;;;;;;;;;22.77;49.87402;100401.1;;;;-77
2022/08/15 07:01:32;;;;;;;;;;;;;;;22.79;50.17578;100397.6;;;;-78
2022/08/15 07:06:31;;;;;;;;;;;;;;;22.82;50.16602;100381.3;;;;-77
2022/08/15 07:11:30;;;;;;;;;;;;;;;22.88;50.21973;100380.4;;;;-77
2022/08/15 07:15:50;;;;;;;9.3;6;;;;;;;;;;;;;-75
2022/08/15 07:16:30;;;;;;;;;;;;;;;22.98;49.73633;100389.1;;;;-77
2022/08/15 07:21:27;;;;;;;;;;;;;;;23.08;49.33496;100373.8;;;;-76
2022/08/15 07:26:28;;;;;;;;;;;;;;;23.29;49.2998;100362.8;;;;-76
2022/08/15 07:31:33;;;;;;;;;;;;;;;23.8;49.5293;100362.5;;;;-78
2022/08/15 07:36:29;;;;;;;;;;;;;;;24.25;49.01367;100352.9;;;;-78
2022/08/15 07:41:30;;;;;;;;;;;;;;;24.79;48.00098;100354.2;;;;-78
2022/08/15 07:45:48;;;;;;;7.6;4.3;;;;;;;;;;;;;-78
2022/08/15 07:46:46;;;;;;;;;;;;;;;25.3;47.17676;100356.1;;;;-77
2022/08/15 07:51:29;;;;;;;;;;;;;;;25.81;46.50098;100353.6;;;;-77
2022/08/15 07:56:28;;;;;;;;;;;;;;;26.32;45.95215;100358.8;;;;-76
2022/08/15 08:01:31;;;;;;;;;;;;;;;26.79;45.2334;100354.9;;;;-75
2022/08/15 08:06:31;;;;;;;;;;;;;;;27.2;44.57813;100353.1;;;;-74
2022/08/15 08:11:33;;;;;;;;;;;;;;;27.61;43.65332;100356.4;;;;-75
2022/08/15 08:15:55;;;;;;;5;3.1;;;;;;;;;;;;;-76
2022/08/15 08:16:30;;;;;;;;;;;;;;;27.95;42.89453;100369.4;;;;-74
2022/08/15 08:21:30;;;;;;;;;;;;;;;28.33;42.13867;100365.2;;;;-75
2022/08/15 08:26:33;;;;;;;;;;;;;;;28.71;41.39258;100367.5;;;;-74
2022/08/15 08:31:31;;;;;;;;;;;;;;;29.03;40.48828;100368;;;;-74
2022/08/15 08:36:32;;;;;;;;;;;;;;;29.32;39.86035;100364.1;;;;-75
2022/08/15 08:41:34;;;;;;;;;;;;;;;29.63;39.11621;100359.4;;;;-76
2022/08/15 08:46:04;;;;;;;4.5;3;;;;;;;;;;;;;-75
2022/08/15 08:46:36;;;;;;;;;;;;;;;30.03;38.64648;100357.4;;;;-75
2022/08/15 08:51:34;;;;;;;;;;;;;;;30.38;37.90332;100356;;;;-74
2022/08/15 08:56:30;;;;;;;;;;;;;;;30.73;37.62793;100360.2;;;;-74
2022/08/15 09:01:29;;;;;;;;;;;;;;;31.12;36.95508;100356.6;;;;-75
2022/08/15 09:06:29;;;;;;;;;;;;;;;31.39;36.26074;100356.9;;;;-75
2022/08/15 09:11:30;;;;;;;;;;;;;;;31.79;35.83398;100351.1;;;;-74
2022/08/15 09:16:03;;;;;;;6;2.8;;;;;;;;;;;;;-75
2022/08/15 09:16:33;;;;;;;;;;;;;;;32.19;35.32324;100357.1;;;;-75
2022/08/15 09:21:27;;;;;;;;;;;;;;;32.33;34.82813;100356.9;;;;-75
2022/08/15 09:26:34;;;;;;;;;;;;;;;32.42;34.39941;100353.9;;;;-73
2022/08/15 09:31:30;;;;;;;;;;;;;;;32.63;33.94336;100361.3;;;;-74
2022/08/15 09:36:41;;;;;;;;;;;;;;;32.88;33.56055;100363.2;;;;-73
2022/08/15 09:41:42;;;;;;;;;;;;;;;33.12;33.08203;100372.6;;;;-75
2022/08/15 09:46:22;;;;;;;7.5;2.6;;;;;;;;;;;;;-74
2022/08/15 09:46:56;;;;;;;;;;;;;;;33.22;32.44043;100363.4;;;;-75
2022/08/15 09:51:40;;;;;;;;;;;;;;;33.42;32.56152;100354.4;;;;-75
2022/08/15 09:56:29;;;;;;;;;;;;;;;33.76;31.85254;100356.2;;;;-78
2022/08/15 10:01:29;;;;;;;;;;;;;;;34.16;31.66699;100363.1;;;;-74
2022/08/15 10:06:29;;;;;;;;;;;;;;;34.54;31.36133;100366.5;;;;-75
2022/08/15 10:11:35;;;;;;;;;;;;;;;34.95;30.97363;100367.4;;;;-74
2022/08/15 10:16:22;;;;;;;5.1;2.6;;;;;;;;;;;;;-75
2022/08/15 10:16:43;;;;;;;;;;;;;;;35.21;30.50488;100363.6;;;;-73
2022/08/15 10:21:35;;;;;;;;;;;;;;;35.39;30.73047;100374.8;;;;-75
2022/08/15 10:26:31;;;;;;;;;;;;;;;35.59;30.375;100377.9;;;;-76
2022/08/15 10:31:29;;;;;;;;;;;;;;;35.76;30.49414;100381.4;;;;-74
2022/08/15 10:36:34;;;;;;;;;;;;;;;35.94;29.74609;100389.8;;;;-74
2022/08/15 10:41:31;;;;;;;;;;;;;;;36.14;30.0918;100394.5;;;;-74
2022/08/15 10:46:24;;;;;;;4.8;2.7;;;;;;;;;;;;;-74
2022/08/15 10:46:51;;;;;;;;;;;;;;;36.39;30.2627;100387.3;;;;-73
2022/08/15 10:51:38;;;;;;;;;;;;;;;36.67;30.30469;100387.3;;;;-74
2022/08/15 10:56:28;;;;;;;;;;;;;;;36.91;30.01074;100389.7;;;;-74
2022/08/15 11:01:31;;;;;;;;;;;;;;;37.04;29.81641;100394.5;;;;-75
2022/08/15 11:06:28;;;;;;;;;;;;;;;36.95;29.40625;100394;;;;-75
2022/08/15 11:11:29;;;;;;;;;;;;;;;36.92;29.8916;100401.5;;;;-74
2022/08/15 11:16:29;;;;;;;5;2.5;;;;;;;;;;;;;-74
2022/08/15 11:16:54;;;;;;;;;;;;;;;36.97;28.98926;100397.4;;;;-74
2022/08/15 11:21:33;;;;;;;;;;;;;;;37.07;28.8291;100404.7;;;;-76
2022/08/15 11:26:30;;;;;;;;;;;;;;;37.12;29.27246;100402.5;;;;-76
2022/08/15 11:31:28;;;;;;;;;;;;;;;36.99;29.59863;100411.6;;;;-75
2022/08/15 11:36:29;;;;;;;;;;;;;;;36.78;29.62012;100425.5;;;;-75
2022/08/15 11:41:31;;;;;;;;;;;;;;;36.68;30.04297;100432.5;;;;-76
2022/08/15 11:46:29;;;;;;;;;;;;;;;36.69;30.25879;100448.4;;;;-75
2022/08/15 11:46:41;;;;;;;4.8;3;;;;;;;;;;;;;-75
2022/08/15 11:51:31;;;;;;;;;;;;;;;36.53;29.83105;100449.5;;;;-74
2022/08/15 11:56:39;;;;;;;;;;;;;;;36.27;30.0752;100456.8;;;;-74
2022/08/15 12:01:32;;;;;;;;;;;;;;;35.99;30.25977;100460.8;;;;-74
2022/08/15 12:06:30;;;;;;;;;;;;;;;35.61;30.51953;100465.2;;;;-74
2022/08/15 12:11:28;;;;;;;;;;;;;;;35.28;30.90137;100464.4;;;;-74
2022/08/15 12:16:33;;;;;;;;;;;;;;;34.96;31.24707;100463.9;;;;-74
2022/08/15 12:16:44;;;;;;;5.3;3.4;;;;;;;;;;;;;-74
2022/08/15 12:21:28;;;;;;;;;;;;;;;34.69;31.65625;100470.2;;;;-75
2022/08/15 12:26:28;;;;;;;;;;;;;;;34.41;31.91992;100477.3;;;;-75
2022/08/15 12:31:30;;;;;;;;;;;;;;;34.11;32.20801;100481.2;;;;-75
2022/08/15 12:36:28;;;;;;;;;;;;;;;33.8;32.55273;100489.6;;;;-74
2022/08/15 12:41:28;;;;;;;;;;;;;;;33.48;33.0498;100488.1;;;;-74
2022/08/15 12:46:28;;;;;;;;;;;;;;;33.16;33.4873;100491.5;;;;-73
2022/08/15 12:46:45;;;;;;;6.1;3.8;;;;;;;;;;;;;-75
2022/08/15 12:51:28;;;;;;;;;;;;;;;32.88;33.90332;100496.3;;;;-74
2022/08/15 12:56:27;;;;;;;;;;;;;;;32.65;34.16895;100501.8;;;;-73
2022/08/15 13:01:28;;;;;;;;;;;;;;;32.51;34.38184;100505.3;;;;-74
2022/08/15 13:06:31;;;;;;;;;;;;;;;32.36;34.51172;100502.7;;;;-74
2022/08/15 13:11:27;;;;;;;;;;;;;;;32.21;34.71289;100500.5;;;;-74
2022/08/15 13:16:27;;;;;;;;;;;;;;;32.14;34.83691;100495.9;;;;-73
2022/08/15 13:16:50;;;;;;;7.6;3.6;;;;;;;;;;;;;-73
2022/08/15 13:26:28;;;;;;;;;;;;;;;32.01;35.0625;100501;;;;-75
2022/08/15 13:31:28;;;;;;;;;;;;;;;31.92;35.12695;100497.7;;;;-75
2022/08/15 13:36:28;;;;;;;;;;;;;;;31.87;35.25195;100494;;;;-77
2022/08/15 13:41:28;;;;;;;;;;;;;;;31.85;35.30957;100490.3;;;;-74
2022/08/15 13:46:28;;;;;;;;;;;;;;;31.86;35.27441;100482.1;;;;-75
2022/08/15 13:47:00;;;;;;;6.6;3.3;;;;;;;;;;;;;-74
2022/08/15 13:51:30;;;;;;;;;;;;;;;31.92;35.2207;100479;;;;-75
2022/08/15 13:56:28;;;;;;;;;;;;;;;32.13;34.91895;100472.7;;;;-73
2022/08/15 14:01:29;;;;;;;;;;;;;;;32.51;34.80664;100470.2;;;;-76
2022/08/15 14:06:28;;;;;;;;;;;;;;;32.85;34.71484;100479.5;;;;-74
2022/08/15 14:11:28;;;;;;;;;;;;;;;33.07;34.48242;100479.3;;;;-75
2022/08/15 14:16:30;;;;;;;;;;;;;;;33.11;34.3916;100475.3;;;;-73
2022/08/15 14:17:00;;;;;;;5.9;3.4;;;;;;;;;;;;;-75
2022/08/15 14:21:28;;;;;;;;;;;;;;;33.1;34.34473;100464.9;;;;-74
2022/08/15 14:26:30;;;;;;;;;;;;;;;33.03;34.4209;100465.2;;;;-75
2022/08/15 14:31:27;;;;;;;;;;;;;;;32.98;34.53516;100465.1;;;;-74
2022/08/15 14:36:27;;;;;;;;;;;;;;;32.83;34.62988;100465.1;;;;-75
2022/08/15 14:41:30;;;;;;;;;;;;;;;32.7;34.82031;100467.6;;;;-76
2022/08/15 14:46:28;;;;;;;;;;;;;;;32.59;34.94238;100473.1;;;;-74
2022/08/15 14:47:07;;;;;;;6.1;3.8;;;;;;;;;;;;;-73
2022/08/15 14:51:30;;;;;;;;;;;;;;;32.49;35.11133;100472.4;;;;-75
2022/08/15 14:56:28;;;;;;;;;;;;;;;32.41;35.2002;100480.6;;;;-74
2022/08/15 15:01:28;;;;;;;;;;;;;;;32.31;35.36914;100483.2;;;;-74
2022/08/15 15:06:29;;;;;;;;;;;;;;;32.19;35.47656;100478.9;;;;-75
2022/08/15 15:11:28;;;;;;;;;;;;;;;32.07;35.67969;100479.1;;;;-75
2022/08/15 15:16:30;;;;;;;;;;;;;;;31.92;35.87891;100476.9;;;;-74
2022/08/15 15:17:12;;;;;;;6.9;3.9;;;;;;;;;;;;;-75
2022/08/15 15:21:27;;;;;;;;;;;;;;;31.79;36.0332;100478.3;;;;-74
2022/08/15 15:26:30;;;;;;;;;;;;;;;31.66;36.2002;100479.7;;;;-75
2022/08/15 15:31:28;;;;;;;;;;;;;;;31.54;36.33105;100479.3;;;;-75
2022/08/15 15:36:29;;;;;;;;;;;;;;;31.44;36.38184;100482.8;;;;-74
2022/08/15 15:41:28;;;;;;;;;;;;;;;31.39;36.30762;100480.9;;;;-74
2022/08/15 15:46:27;;;;;;;;;;;;;;;31.41;36.12109;100480.6;;;;-74
2022/08/15 15:47:18;;;;;;;7.3;4;;;;;;;;;;;;;-74
2022/08/15 15:51:27;;;;;;;;;;;;;;;31.45;35.9834;100480.8;;;;-75
2022/08/15 15:56:27;;;;;;;;;;;;;;;31.48;35.98633;100480.8;;;;-75
2022/08/15 16:01:28;;;;;;;;;;;;;;;31.46;35.96094;100481.2;;;;-74
2022/08/15 16:06:27;;;;;;;;;;;;;;;31.47;35.97266;100479.6;;;;-74
2022/08/15 16:11:30;;;;;;;;;;;;;;;31.49;35.89258;100474.1;;;;-75
2022/08/15 16:16:30;;;;;;;;;;;;;;;31.58;35.79395;100476.7;;;;-74
2022/08/15 16:17:25;;;;;;;6.6;3.7;;;;;;;;;;;;;-75
2022/08/15 16:21:30;;;;;;;;;;;;;;;31.7;35.7207;100477.8;;;;-75
2022/08/15 16:26:35;;;;;;;;;;;;;;;31.76;35.65527;100474.7;;;;-73
2022/08/15 16:31:31;;;;;;;;;;;;;;;31.82;35.58887;100474.5;;;;-76
2022/08/15 16:36:31;;;;;;;;;;;;;;;31.95;35.48145;100475.1;;;;-74
2022/08/15 16:41:37;;;;;;;;;;;;;;;32.03;35.41699;100470.5;;;;-74
2022/08/15 16:46:33;;;;;;;;;;;;;;;32.06;35.34863;100471.7;;;;-74
2022/08/15 16:47:33;;;;;;;4.8;3.4;;;;;;;;;;;;;-74
2022/08/15 16:51:30;;;;;;;;;;;;;;;32.01;35.36816;100471.9;;;;-74
2022/08/15 16:56:35;;;;;;;;;;;;;;;31.87;35.53418;100468.1;;;;-70
2022/08/15 17:01:39;;;;;;;;;;;;;;;31.66;35.84668;100467.8;;;;-74
2022/08/15 17:06:30;;;;;;;;;;;;;;;31.4;36.12109;100466.6;;;;-77
2022/08/15 17:11:30;;;;;;;;;;;;;;;31.16;36.40625;100471.9;;;;-75
2022/08/15 17:16:44;;;;;;;;;;;;;;;30.94;36.54199;100469.1;;;;-78
2022/08/15 17:17:48;;;;;;;5.7;3.7;;;;;;;;;;;;;-79
2022/08/15 17:21:39;;;;;;;;;;;;;;;30.78;36.49316;100469.7;;;;-78
2022/08/15 17:26:28;;;;;;;;;;;;;;;30.67;36.30859;100475.1;;;;-75
2022/08/15 17:31:32;;;;;;;;;;;;;;;30.55;36.28711;100472;;;;-76
2022/08/15 17:36:33;;;;;;;;;;;;;;;30.44;36.36133;100478.5;;;;-77
2022/08/15 17:41:33;;;;;;;;;;;;;;;30.32;36.44531;100490.5;;;;-77
2022/08/15 17:46:30;;;;;;;;;;;;;;;30.18;36.52734;100498.6;;;;-76
2022/08/15 17:47:49;;;;;;;6.2;3.5;;;;;;;;;;;;;-79
2022/08/15 17:51:29;;;;;;;;;;;;;;;30;36.64258;100499.3;;;;-77
2022/08/15 17:56:37;;;;;;;;;;;;;;;29.82;36.70996;100503.4;;;;-78
2022/08/15 18:01:32;;;;;;;;;;;;;;;29.65;36.60156;100505.2;;;;-77
2022/08/15 18:06:29;;;;;;;;;;;;;;;29.47;36.66895;100501.7;;;;-78
2022/08/15 18:11:34;;;;;;;;;;;;;;;29.28;36.54883;100506.2;;;;-77
2022/08/15 18:16:39;;;;;;;;;;;;;;;29.1;36.5459;100513.1;;;;-78
2022/08/15 18:17:50;;;;;;;6.8;4.1;;;;;;;;;;;;;-77
2022/08/15 18:21:35;;;;;;;;;;;;;;;28.92;36.76465;100520.5;;;;-78
2022/08/15 18:26:36;;;;;;;;;;;;;;;28.75;36.78613;100531.6;;;;-76
2022/08/15 18:31:33;;;;;;;;;;;;;;;28.58;36.94727;100546.8;;;;-77
2022/08/15 18:36:32;;;;;;;;;;;;;;;28.4;37.71484;100562.9;;;;-77
2022/08/15 18:41:40;;;;;;;;;;;;;;;28.15;38.66113;100576.3;;;;-77
2022/08/15 18:46:29;;;;;;;;;;;;;;;27.82;39.94922;100565.7;;;;-75
2022/08/15 18:47:52;;;;;;;9.5;4;;;;;;;;;;;;;-76
2022/08/15 18:51:48;;;;;;;;;;;;;;;27.52;40.29492;100559.8;;;;-78
2022/08/15 18:56:29;;;;;;;;;;;;;;;27.18;40.93945;100551.7;;;;-77
2022/08/15 19:01:33;;;;;;;;;;;;;;;26.82;41.5459;100532.8;;;;-78
2022/08/15 19:06:33;;;;;;;;;;;;;;;26.49;42.15234;100547.5;;;;-77
2022/08/15 19:12:01;;;;;;;;;;;;;;;26.16;42.59766;100565.5;;;;-78
2022/08/15 19:17:01;;;;;;;;;;;;;;;25.88;43.24316;100574.5;;;;-77
2022/08/15 19:18:15;;;;;;;8.6;4.2;;;;;;;;;;;;;-78
2022/08/15 19:22:07;;;;;;;;;;;;;;;25.65;43.78809;100576.1;;;;-79
2022/08/15 19:27:07;;;;;;;;;;;;;;;25.41;44.5166;100584.5;;;;-78
2022/08/15 19:32:02;;;;;;;;;;;;;;;25.19;44.69141;100582.2;;;;-79
2022/08/15 19:37:07;;;;;;;;;;;;;;;25.03;45;100583.5;;;;-74
2022/08/15 19:42:02;;;;;;;;;;;;;;;24.89;45.48145;100579.5;;;;-74
2022/08/15 19:47:02;;;;;;;;;;;;;;;24.75;46.11328;100582.2;;;;-74
2022/08/15 19:48:02;;;;;;;8.4;5;;;;;;;;;;;;;-75
2022/08/15 19:52:15;;;;;;;;;;;;;;;24.62;46.28516;100586.5;;;;-75
2022/08/15 19:57:02;;;;;;;;;;;;;;;24.51;46.85156;100581.1;;;;-72
2022/08/15 20:02:05;;;;;;;;;;;;;;;24.41;46.85156;100572.7;;;;-74
2022/08/15 20:07:04;;;;;;;;;;;;;;;24.31;47.08398;100574.7;;;;-75
2022/08/15 20:12:07;;;;;;;;;;;;;;;24.22;47.4082;100569.6;;;;-74
2022/08/15 20:17:04;;;;;;;;;;;;;;;24.13;47.50293;100575.3;;;;-74
2022/08/15 20:18:06;;;;;;;10.4;6.1;;;;;;;;;;;;;-74
2022/08/15 20:22:03;;;;;;;;;;;;;;;24.03;47.74609;100586.3;;;;-76
2022/08/15 20:27:00;;;;;;;;;;;;;;;23.9;48.20508;100589.9;;;;-75
2022/08/15 20:32:01;;;;;;;;;;;;;;;23.8;48.6543;100597.6;;;;-73
2022/08/15 20:37:00;;;;;;;;;;;;;;;23.7;49.02246;100586.5;;;;-75
2022/08/15 20:42:01;;;;;;;;;;;;;;;23.59;49.14844;100590.7;;;;-75
2022/08/15 20:47:02;;;;;;;;;;;;;;;23.53;49.13086;100594.4;;;;-76
2022/08/15 20:48:07;;;;;;;10.3;7.2;;;;;;;;;;;;;-75
2022/08/15 20:51:59;;;;;;;;;;;;;;;23.46;49.11133;100594.5;;;;-74
2022/08/15 20:56:58;;;;;;;;;;;;;;;23.41;49.20996;100601.9;;;;-76
2022/08/15 21:01:59;;;;;;;;;;;;;;;23.34;49.39746;100602.3;;;;-76
2022/08/15 21:07:00;;;;;;;;;;;;;;;23.29;49.56445;100600.2;;;;-75
2022/08/15 21:12:09;;;;;;;;;;;;;;;23.24;49.44434;100605.4;;;;-75
2022/08/15 21:17:19;;;;;;;;;;;;;;;23.18;49.83887;100611.4;;;;-75
2022/08/15 21:18:13;;;;;;;11.5;7.8;;;;;;;;;;;;;-76
2022/08/15 21:21:58;;;;;;;;;;;;;;;23.13;50.09961;100606.1;;;;-74
2022/08/15 21:26:59;;;;;;;;;;;;;;;23.08;49.90918;100606.9;;;;-76
2022/08/15 21:32:10;;;;;;;;;;;;;;;23;50.80762;100602.8;;;;-76
2022/08/15 21:36:59;;;;;;;;;;;;;;;22.93;50.28125;100600.7;;;;-75
2022/08/15 21:41:58;;;;;;;;;;;;;;;22.85;50.36523;100606.5;;;;-75
2022/08/15 21:47:09;;;;;;;;;;;;;;;22.79;50.48535;100612.8;;;;-75
2022/08/15 21:48:37;;;;;;;10.3;7.7;;;;;;;;;;;;;-75
2022/08/15 21:52:01;;;;;;;;;;;;;;;22.72;50.68262;100615.8;;;;-76
2022/08/15 21:57:01;;;;;;;;;;;;;;;22.65;50.90625;100621.1;;;;-75
2022/08/15 22:02:05;;;;;;;;;;;;;;;22.57;51.38867;100622;;;;-76
2022/08/15 22:06:58;;;;;;;;;;;;;;;22.5;51.69043;100623.2;;;;-75
2022/08/15 22:11:58;;;;;;;;;;;;;;;22.41;51.81836;100617.3;;;;-76
2022/08/15 22:16:58;;;;;;;;;;;;;;;22.34;51.67285;100617.8;;;;-76
2022/08/15 22:18:17;;;;;;;10.6;7.8;;;;;;;;;;;;;-76
2022/08/15 22:21:59;;;;;;;;;;;;;;;22.27;52.31738;100618.7;;;;-75
2022/08/15 22:26:58;;;;;;;;;;;;;;;22.19;52.16016;100623.8;;;;-76
2022/08/15 22:32:00;;;;;;;;;;;;;;;22.11;52.20801;100620.6;;;;-75
2022/08/15 22:36:58;;;;;;;;;;;;;;;22.03;52.3125;100616.4;;;;-75
2022/08/15 22:42:00;;;;;;;;;;;;;;;21.97;52.5;100612.5;;;;-75
2022/08/15 22:47:00;;;;;;;;;;;;;;;21.88;52.58105;100608;;;;-76
2022/08/15 22:48:18;;;;;;;10.3;7.1;;;;;;;;;;;;;-75
2022/08/15 22:52:00;;;;;;;;;;;;;;;21.86;52.45215;100609.3;;;;-74
2022/08/15 22:57:07;;;;;;;;;;;;;;;21.77;52.56738;100607.5;;;;-74
2022/08/15 23:01:59;;;;;;;;;;;;;;;21.74;52.38184;100605;;;;-75
2022/08/15 23:07:06;;;;;;;;;;;;;;;21.69;52.06738;100599.6;;;;-75
2022/08/15 23:11:59;;;;;;;;;;;;;;;21.63;51.76172;100605.5;;;;-75
2022/08/15 23:17:04;;;;;;;;;;;;;;;21.56;52.22266;100604.3;;;;-74
2022/08/15 23:18:22;;;;;;;9.9;6.8;;;;;;;;;;;;;-75
2022/08/15 23:21:59;;;;;;;;;;;;;;;21.52;52.04688;100603.4;;;;-74
2022/08/15 23:26:58;;;;;;;;;;;;;;;21.47;51.8457;100600.7;;;;-76
2022/08/15 23:32:03;;;;;;;;;;;;;;;21.4;51.89551;100604.2;;;;-74
2022/08/15 23:37:01;;;;;;;;;;;;;;;21.37;52.09766;100610.9;;;;-74
2022/08/15 23:42:02;;;;;;;;;;;;;;;21.34;51.80859;100606.8;;;;-75
2022/08/15 23:46:58;;;;;;;;;;;;;;;21.3;51.87207;100611.7;;;;-75
2022/08/15 23:48:24;;;;;;;8.3;6;;;;;;;;;;;;;-75
2022/08/15 23:51:58;;;;;;;;;;;;;;;21.26;51.98242;100617.4;;;;-75
2022/08/15 23:56:58;;;;;;;;;;;;;;;21.21;52.53711;100620.2;;;;-75
